sensor_id;sensor_type;location;lat;lon;timestamp;P1;durP1;ratioP1;P2;durP2;ratioP2
20697;SDS011;10508;50.956;4.640;2023-11-21T00:02:18;40.33;;;19.27;;
20697;SDS011;10508;50.956;4.640;2023-11-21T00:04:44;43.85;;;19.83;;
20697;SDS011;10508;50.956;4.640;2023-11-21T00:07:10;46.85;;;19.58;;
20697;SDS011;10508;50.956;4.640;2023-11-21T00:09:36;43.95;;;21.05;;
20697;SDS011;10508;50.956;4.640;2023-11-21T00:12:02;40.67;;;19.45;;
20697;SDS011;10508;50.956;4.640;2023-11-21T00:14:28;51.33;;;21.17;;
20697;SDS011;10508;50.956;4.640;2023-11-21T00:16:54;45.13;;;20.52;;
20697;SDS011;10508;50.956;4.640;2023-11-21T00:19:20;41.15;;;18.60;;
20697;SDS011;10508;50.956;4.640;2023-11-21T00:21:46;49.80;;;20.00;;
20697;SDS011;10508;50.956;4.640;2023-11-21T00:24:13;42.33;;;20.63;;
20697;SDS011;10508;50.956;4.640;2023-11-21T00:26:39;39.40;;;18.90;;
20697;SDS011;10508;50.956;4.640;2023-11-21T00:29:05;42.92;;;19.48;;
20697;SDS011;10508;50.956;4.640;2023-11-21T00:31:33;42.47;;;18.00;;
20697;SDS011;10508;50.956;4.640;2023-11-21T00:33:59;42.80;;;18.33;;
20697;SDS011;10508;50.956;4.640;2023-11-21T00:36:25;45.67;;;20.42;;
20697;SDS011;10508;50.956;4.640;2023-11-21T00:38:51;44.45;;;19.30;;
20697;SDS011;10508;50.956;4.640;2023-11-21T00:41:17;44.85;;;18.42;;
20697;SDS011;10508;50.956;4.640;2023-11-21T00:43:43;44.83;;;18.30;;
20697;SDS011;10508;50.956;4.640;2023-11-21T00:46:09;40.30;;;18.10;;
20697;SDS011;10508;50.956;4.640;2023-11-21T00:48:35;38.13;;;17.48;;
20697;SDS011;10508;50.956;4.640;2023-11-21T00:51:01;42.35;;;17.52;;
20697;SDS011;10508;50.956;4.640;2023-11-21T00:53:27;41.83;;;17.73;;
20697;SDS011;10508;50.956;4.640;2023-11-21T00:55:53;41.13;;;16.73;;
20697;SDS011;10508;50.956;4.640;2023-11-21T00:58:22;33.90;;;14.85;;
20697;SDS011;10508;50.956;4.640;2023-11-21T01:00:48;32.42;;;14.70;;
20697;SDS011;10508;50.956;4.640;2023-11-21T01:03:14;31.75;;;13.65;;
20697;SDS011;10508;50.956;4.640;2023-11-21T01:05:40;27.27;;;13.75;;
20697;SDS011;10508;50.956;4.640;2023-11-21T01:08:06;27.33;;;12.98;;
20697;SDS011;10508;50.956;4.640;2023-11-21T01:10:32;21.38;;;11.98;;
20697;SDS011;10508;50.956;4.640;2023-11-21T01:13:02;31.20;;;13.32;;
20697;SDS011;10508;50.956;4.640;2023-11-21T01:15:30;26.67;;;13.18;;
20697;SDS011;10508;50.956;4.640;2023-11-21T01:17:57;37.45;;;13.50;;
20697;SDS011;10508;50.956;4.640;2023-11-21T01:20:23;30.33;;;13.52;;
20697;SDS011;10508;50.956;4.640;2023-11-21T01:22:49;27.90;;;12.68;;
20697;SDS011;10508;50.956;4.640;2023-11-21T01:25:15;33.65;;;13.30;;
20697;SDS011;10508;50.956;4.640;2023-11-21T01:27:42;33.88;;;12.98;;
20697;SDS011;10508;50.956;4.640;2023-11-21T01:30:08;37.92;;;16.02;;
20697;SDS011;10508;50.956;4.640;2023-11-21T01:32:38;28.67;;;13.57;;
20697;SDS011;10508;50.956;4.640;2023-11-21T01:35:04;31.13;;;14.82;;
20697;SDS011;10508;50.956;4.640;2023-11-21T01:37:35;31.80;;;14.00;;
20697;SDS011;10508;50.956;4.640;2023-11-21T01:40:02;33.78;;;13.65;;
20697;SDS011;10508;50.956;4.640;2023-11-21T01:42:30;37.03;;;14.35;;
20697;SDS011;10508;50.956;4.640;2023-11-21T01:44:56;32.92;;;14.23;;
20697;SDS011;10508;50.956;4.640;2023-11-21T01:47:22;39.58;;;14.32;;
20697;SDS011;10508;50.956;4.640;2023-11-21T01:49:48;40.22;;;14.48;;
20697;SDS011;10508;50.956;4.640;2023-11-21T01:52:14;36.63;;;14.52;;
20697;SDS011;10508;50.956;4.640;2023-11-21T01:54:40;38.13;;;15.13;;
20697;SDS011;10508;50.956;4.640;2023-11-21T01:57:07;36.33;;;14.25;;
20697;SDS011;10508;50.956;4.640;2023-11-21T01:59:36;36.53;;;15.95;;
20697;SDS011;10508;50.956;4.640;2023-11-21T02:02:03;36.17;;;14.52;;
20697;SDS011;10508;50.956;4.640;2023-11-21T02:04:30;39.58;;;15.02;;
20697;SDS011;10508;50.956;4.640;2023-11-21T02:06:57;47.00;;;15.63;;
20697;SDS011;10508;50.956;4.640;2023-11-21T02:09:26;37.53;;;14.68;;
20697;SDS011;10508;50.956;4.640;2023-11-21T02:11:55;35.50;;;14.90;;
20697;SDS011;10508;50.956;4.640;2023-11-21T02:14:41;42.00;;;14.70;;
20697;SDS011;10508;50.956;4.640;2023-11-21T02:17:08;34.03;;;13.73;;
20697;SDS011;10508;50.956;4.640;2023-11-21T02:19:34;33.40;;;13.57;;
20697;SDS011;10508;50.956;4.640;2023-11-21T02:22:00;35.80;;;13.63;;
20697;SDS011;10508;50.956;4.640;2023-11-21T02:24:29;31.98;;;13.52;;
20697;SDS011;10508;50.956;4.640;2023-11-21T02:26:56;40.78;;;15.27;;
20697;SDS011;10508;50.956;4.640;2023-11-21T02:29:22;41.70;;;14.25;;
20697;SDS011;10508;50.956;4.640;2023-11-21T02:31:53;36.75;;;14.52;;
20697;SDS011;10508;50.956;4.640;2023-11-21T02:34:20;37.47;;;14.73;;
20697;SDS011;10508;50.956;4.640;2023-11-21T02:36:46;39.45;;;13.65;;
20697;SDS011;10508;50.956;4.640;2023-11-21T02:39:14;33.63;;;13.10;;
20697;SDS011;10508;50.956;4.640;2023-11-21T02:41:41;35.05;;;13.65;;
20697;SDS011;10508;50.956;4.640;2023-11-21T02:44:08;32.75;;;12.73;;
20697;SDS011;10508;50.956;4.640;2023-11-21T02:46:35;35.42;;;13.70;;
20697;SDS011;10508;50.956;4.640;2023-11-21T02:49:01;35.85;;;13.70;;
20697;SDS011;10508;50.956;4.640;2023-11-21T02:51:27;35.08;;;12.52;;
20697;SDS011;10508;50.956;4.640;2023-11-21T02:53:54;40.75;;;14.38;;
20697;SDS011;10508;50.956;4.640;2023-11-21T02:56:23;31.92;;;12.30;;
20697;SDS011;10508;50.956;4.640;2023-11-21T02:58:50;29.23;;;11.15;;
20697;SDS011;10508;50.956;4.640;2023-11-21T03:01:16;38.88;;;14.75;;
20697;SDS011;10508;50.956;4.640;2023-11-21T03:03:42;33.38;;;12.75;;
20697;SDS011;10508;50.956;4.640;2023-11-21T03:06:08;44.08;;;15.15;;
20697;SDS011;10508;50.956;4.640;2023-11-21T03:08:34;34.08;;;12.13;;
20697;SDS011;10508;50.956;4.640;2023-11-21T03:11:00;37.60;;;12.95;;
20697;SDS011;10508;50.956;4.640;2023-11-21T03:13:30;33.25;;;12.80;;
20697;SDS011;10508;50.956;4.640;2023-11-21T03:15:56;45.33;;;15.70;;
20697;SDS011;10508;50.956;4.640;2023-11-21T03:18:22;41.40;;;15.10;;
20697;SDS011;10508;50.956;4.640;2023-11-21T03:20:48;42.58;;;14.27;;
20697;SDS011;10508;50.956;4.640;2023-11-21T03:23:14;41.25;;;14.68;;
20697;SDS011;10508;50.956;4.640;2023-11-21T03:25:40;38.30;;;13.70;;
20697;SDS011;10508;50.956;4.640;2023-11-21T03:28:06;37.38;;;12.70;;
20697;SDS011;10508;50.956;4.640;2023-11-21T03:30:33;38.00;;;13.45;;
20697;SDS011;10508;50.956;4.640;2023-11-21T03:32:59;34.92;;;12.80;;
20697;SDS011;10508;50.956;4.640;2023-11-21T03:35:25;40.35;;;13.88;;
20697;SDS011;10508;50.956;4.640;2023-11-21T03:37:52;36.05;;;13.80;;
20697;SDS011;10508;50.956;4.640;2023-11-21T03:40:19;32.65;;;12.73;;
20697;SDS011;10508;50.956;4.640;2023-11-21T03:42:46;36.08;;;13.63;;
20697;SDS011;10508;50.956;4.640;2023-11-21T03:45:12;34.33;;;13.88;;
20697;SDS011;10508;50.956;4.640;2023-11-21T03:47:40;34.05;;;13.27;;
20697;SDS011;10508;50.956;4.640;2023-11-21T03:50:06;38.33;;;13.65;;
20697;SDS011;10508;50.956;4.640;2023-11-21T03:52:33;33.92;;;13.18;;
20697;SDS011;10508;50.956;4.640;2023-11-21T03:55:00;32.70;;;12.80;;
20697;SDS011;10508;50.956;4.640;2023-11-21T03:57:26;42.97;;;14.52;;
20697;SDS011;10508;50.956;4.640;2023-11-21T03:59:55;48.95;;;15.15;;
20697;SDS011;10508;50.956;4.640;2023-11-21T04:02:21;35.80;;;12.88;;
20697;SDS011;10508;50.956;4.640;2023-11-21T04:04:47;34.47;;;13.93;;
20697;SDS011;10508;50.956;4.640;2023-11-21T04:07:13;34.17;;;12.73;;
20697;SDS011;10508;50.956;4.640;2023-11-21T04:09:40;36.40;;;13.70;;
20697;SDS011;10508;50.956;4.640;2023-11-21T04:12:06;36.47;;;13.32;;
20697;SDS011;10508;50.956;4.640;2023-11-21T04:14:34;31.58;;;14.88;;
20697;SDS011;10508;50.956;4.640;2023-11-21T04:17:00;33.65;;;14.25;;
20697;SDS011;10508;50.956;4.640;2023-11-21T04:19:29;38.40;;;14.48;;
20697;SDS011;10508;50.956;4.640;2023-11-21T04:21:55;35.97;;;13.57;;
20697;SDS011;10508;50.956;4.640;2023-11-21T04:24:21;36.45;;;14.30;;
20697;SDS011;10508;50.956;4.640;2023-11-21T04:26:47;37.80;;;13.40;;
20697;SDS011;10508;50.956;4.640;2023-11-21T04:29:13;30.45;;;11.77;;
20697;SDS011;10508;50.956;4.640;2023-11-21T04:31:39;33.28;;;13.27;;
20697;SDS011;10508;50.956;4.640;2023-11-21T04:34:06;38.33;;;12.95;;
20697;SDS011;10508;50.956;4.640;2023-11-21T04:36:33;33.97;;;13.15;;
20697;SDS011;10508;50.956;4.640;2023-11-21T04:39:00;31.50;;;12.02;;
20697;SDS011;10508;50.956;4.640;2023-11-21T04:41:26;31.05;;;12.43;;
20697;SDS011;10508;50.956;4.640;2023-11-21T04:43:52;29.33;;;12.73;;
20697;SDS011;10508;50.956;4.640;2023-11-21T04:46:18;35.38;;;12.68;;
20697;SDS011;10508;50.956;4.640;2023-11-21T04:48:44;32.97;;;13.10;;
20697;SDS011;10508;50.956;4.640;2023-11-21T04:51:10;39.97;;;14.38;;
20697;SDS011;10508;50.956;4.640;2023-11-21T04:53:39;40.30;;;14.82;;
20697;SDS011;10508;50.956;4.640;2023-11-21T04:56:05;37.88;;;13.52;;
20697;SDS011;10508;50.956;4.640;2023-11-21T04:58:31;35.70;;;13.07;;
20697;SDS011;10508;50.956;4.640;2023-11-21T05:00:58;33.40;;;13.63;;
20697;SDS011;10508;50.956;4.640;2023-11-21T05:03:24;32.70;;;12.43;;
20697;SDS011;10508;50.956;4.640;2023-11-21T05:05:50;31.00;;;12.85;;
20697;SDS011;10508;50.956;4.640;2023-11-21T05:08:16;32.15;;;12.38;;
20697;SDS011;10508;50.956;4.640;2023-11-21T05:10:44;38.65;;;14.90;;
20697;SDS011;10508;50.956;4.640;2023-11-21T05:13:10;41.15;;;12.85;;
20697;SDS011;10508;50.956;4.640;2023-11-21T05:15:40;36.03;;;12.38;;
20697;SDS011;10508;50.956;4.640;2023-11-21T05:18:06;36.58;;;12.93;;
20697;SDS011;10508;50.956;4.640;2023-11-21T05:20:32;33.88;;;12.40;;
20697;SDS011;10508;50.956;4.640;2023-11-21T05:23:17;31.70;;;12.13;;
20697;SDS011;10508;50.956;4.640;2023-11-21T05:25:43;33.88;;;13.75;;
20697;SDS011;10508;50.956;4.640;2023-11-21T05:28:09;32.65;;;12.98;;
20697;SDS011;10508;50.956;4.640;2023-11-21T05:30:35;36.72;;;13.90;;
20697;SDS011;10508;50.956;4.640;2023-11-21T05:33:01;28.60;;;12.13;;
20697;SDS011;10508;50.956;4.640;2023-11-21T05:35:28;38.95;;;13.55;;
20697;SDS011;10508;50.956;4.640;2023-11-21T05:37:54;33.50;;;13.85;;
20697;SDS011;10508;50.956;4.640;2023-11-21T05:40:20;34.40;;;12.95;;
20697;SDS011;10508;50.956;4.640;2023-11-21T05:42:47;29.58;;;12.77;;
20697;SDS011;10508;50.956;4.640;2023-11-21T05:45:13;35.70;;;13.23;;
20697;SDS011;10508;50.956;4.640;2023-11-21T05:47:43;35.88;;;14.18;;
20697;SDS011;10508;50.956;4.640;2023-11-21T05:50:11;29.70;;;12.77;;
20697;SDS011;10508;50.956;4.640;2023-11-21T05:52:46;29.33;;;13.13;;
20697;SDS011;10508;50.956;4.640;2023-11-21T05:55:13;27.80;;;12.85;;
20697;SDS011;10508;50.956;4.640;2023-11-21T05:57:39;31.52;;;13.48;;
20697;SDS011;10508;50.956;4.640;2023-11-21T06:00:10;34.35;;;12.65;;
20697;SDS011;10508;50.956;4.640;2023-11-21T06:02:39;31.25;;;13.50;;
20697;SDS011;10508;50.956;4.640;2023-11-21T06:05:06;28.27;;;12.63;;
20697;SDS011;10508;50.956;4.640;2023-11-21T06:07:32;31.00;;;13.25;;
20697;SDS011;10508;50.956;4.640;2023-11-21T06:09:58;33.47;;;13.13;;
20697;SDS011;10508;50.956;4.640;2023-11-21T06:12:24;33.45;;;12.25;;
20697;SDS011;10508;50.956;4.640;2023-11-21T06:14:50;32.13;;;12.75;;
20697;SDS011;10508;50.956;4.640;2023-11-21T06:17:16;39.92;;;13.35;;
20697;SDS011;10508;50.956;4.640;2023-11-21T06:19:43;37.00;;;14.10;;
20697;SDS011;10508;50.956;4.640;2023-11-21T06:22:11;35.13;;;12.68;;
20697;SDS011;10508;50.956;4.640;2023-11-21T06:24:37;34.75;;;13.05;;
20697;SDS011;10508;50.956;4.640;2023-11-21T06:27:03;34.72;;;13.00;;
20697;SDS011;10508;50.956;4.640;2023-11-21T06:29:30;34.42;;;13.10;;
20697;SDS011;10508;50.956;4.640;2023-11-21T06:31:57;35.58;;;13.43;;
20697;SDS011;10508;50.956;4.640;2023-11-21T06:34:23;33.85;;;13.38;;
20697;SDS011;10508;50.956;4.640;2023-11-21T06:36:49;30.55;;;12.65;;
20697;SDS011;10508;50.956;4.640;2023-11-21T06:39:16;36.28;;;14.30;;
20697;SDS011;10508;50.956;4.640;2023-11-21T06:41:42;33.63;;;14.10;;
20697;SDS011;10508;50.956;4.640;2023-11-21T06:44:08;33.78;;;14.07;;
20697;SDS011;10508;50.956;4.640;2023-11-21T06:46:34;35.95;;;13.85;;
20697;SDS011;10508;50.956;4.640;2023-11-21T06:49:00;29.63;;;13.57;;
20697;SDS011;10508;50.956;4.640;2023-11-21T06:51:26;40.65;;;15.27;;
20697;SDS011;10508;50.956;4.640;2023-11-21T06:53:52;34.42;;;13.98;;
20697;SDS011;10508;50.956;4.640;2023-11-21T06:56:19;39.45;;;14.25;;
20697;SDS011;10508;50.956;4.640;2023-11-21T06:58:45;31.42;;;13.05;;
20697;SDS011;10508;50.956;4.640;2023-11-21T07:01:14;31.73;;;13.77;;
20697;SDS011;10508;50.956;4.640;2023-11-21T07:03:41;30.45;;;13.32;;
20697;SDS011;10508;50.956;4.640;2023-11-21T07:06:07;30.15;;;12.50;;
20697;SDS011;10508;50.956;4.640;2023-11-21T07:08:33;37.92;;;14.55;;
20697;SDS011;10508;50.956;4.640;2023-11-21T07:10:59;39.65;;;13.30;;
20697;SDS011;10508;50.956;4.640;2023-11-21T07:13:26;38.30;;;15.00;;
20697;SDS011;10508;50.956;4.640;2023-11-21T07:15:52;36.08;;;14.05;;
20697;SDS011;10508;50.956;4.640;2023-11-21T07:18:18;31.75;;;13.75;;
20697;SDS011;10508;50.956;4.640;2023-11-21T07:20:44;33.85;;;13.75;;
20697;SDS011;10508;50.956;4.640;2023-11-21T07:23:10;35.78;;;14.57;;
20697;SDS011;10508;50.956;4.640;2023-11-21T07:25:36;33.22;;;15.10;;
20697;SDS011;10508;50.956;4.640;2023-11-21T07:28:02;30.30;;;13.43;;
20697;SDS011;10508;50.956;4.640;2023-11-21T07:30:30;33.47;;;14.07;;
20697;SDS011;10508;50.956;4.640;2023-11-21T07:32:57;33.78;;;13.57;;
20697;SDS011;10508;50.956;4.640;2023-11-21T07:35:23;34.40;;;14.27;;
20697;SDS011;10508;50.956;4.640;2023-11-21T07:37:49;39.03;;;13.68;;
20697;SDS011;10508;50.956;4.640;2023-11-21T07:40:15;42.88;;;14.35;;
20697;SDS011;10508;50.956;4.640;2023-11-21T07:42:42;34.88;;;14.25;;
20697;SDS011;10508;50.956;4.640;2023-11-21T07:45:08;32.78;;;13.77;;
20697;SDS011;10508;50.956;4.640;2023-11-21T07:47:34;34.63;;;14.10;;
20697;SDS011;10508;50.956;4.640;2023-11-21T07:50:02;32.40;;;14.00;;
20697;SDS011;10508;50.956;4.640;2023-11-21T07:52:28;32.80;;;14.25;;
20697;SDS011;10508;50.956;4.640;2023-11-21T07:54:54;32.95;;;14.05;;
20697;SDS011;10508;50.956;4.640;2023-11-21T07:57:21;34.08;;;14.48;;
20697;SDS011;10508;50.956;4.640;2023-11-21T07:59:47;34.25;;;14.60;;
20697;SDS011;10508;50.956;4.640;2023-11-21T08:02:13;33.55;;;14.95;;
20697;SDS011;10508;50.956;4.640;2023-11-21T08:04:41;33.05;;;14.10;;
20697;SDS011;10508;50.956;4.640;2023-11-21T08:07:07;32.47;;;14.65;;
20697;SDS011;10508;50.956;4.640;2023-11-21T08:09:34;37.72;;;14.90;;
20697;SDS011;10508;50.956;4.640;2023-11-21T08:12:00;42.75;;;14.82;;
20697;SDS011;10508;50.956;4.640;2023-11-21T08:14:27;38.20;;;15.13;;
20697;SDS011;10508;50.956;4.640;2023-11-21T08:16:53;46.95;;;15.35;;
20697;SDS011;10508;50.956;4.640;2023-11-21T08:19:22;40.78;;;15.95;;
20697;SDS011;10508;50.956;4.640;2023-11-21T08:21:50;41.30;;;14.05;;
20697;SDS011;10508;50.956;4.640;2023-11-21T08:24:35;48.25;;;16.42;;
20697;SDS011;10508;50.956;4.640;2023-11-21T08:27:02;46.50;;;16.70;;
20697;SDS011;10508;50.956;4.640;2023-11-21T08:29:29;38.83;;;15.98;;
20697;SDS011;10508;50.956;4.640;2023-11-21T08:31:56;50.50;;;17.42;;
20697;SDS011;10508;50.956;4.640;2023-11-21T08:34:31;46.72;;;17.60;;
20697;SDS011;10508;50.956;4.640;2023-11-21T08:36:57;45.35;;;16.42;;
20697;SDS011;10508;50.956;4.640;2023-11-21T08:39:23;51.78;;;17.23;;
20697;SDS011;10508;50.956;4.640;2023-11-21T08:41:50;49.15;;;18.08;;
20697;SDS011;10508;50.956;4.640;2023-11-21T08:44:16;48.33;;;18.15;;
20697;SDS011;10508;50.956;4.640;2023-11-21T08:46:43;45.97;;;18.77;;
20697;SDS011;10508;50.956;4.640;2023-11-21T08:49:12;47.38;;;19.25;;
20697;SDS011;10508;50.956;4.640;2023-11-21T08:51:40;39.47;;;17.17;;
20697;SDS011;10508;50.956;4.640;2023-11-21T08:54:06;47.28;;;17.60;;
20697;SDS011;10508;50.956;4.640;2023-11-21T08:56:36;41.05;;;17.13;;
20697;SDS011;10508;50.956;4.640;2023-11-21T08:59:02;46.85;;;18.02;;
20697;SDS011;10508;50.956;4.640;2023-11-21T09:01:29;42.70;;;17.23;;
20697;SDS011;10508;50.956;4.640;2023-11-21T09:03:57;47.30;;;17.75;;
20697;SDS011;10508;50.956;4.640;2023-11-21T09:06:23;53.17;;;18.63;;
20697;SDS011;10508;50.956;4.640;2023-11-21T09:08:49;38.75;;;18.08;;
20697;SDS011;10508;50.956;4.640;2023-11-21T09:11:15;47.72;;;19.50;;
20697;SDS011;10508;50.956;4.640;2023-11-21T09:13:41;45.30;;;17.33;;
20697;SDS011;10508;50.956;4.640;2023-11-21T09:16:08;43.10;;;17.75;;
20697;SDS011;10508;50.956;4.640;2023-11-21T09:18:34;49.60;;;18.13;;
20697;SDS011;10508;50.956;4.640;2023-11-21T09:21:00;48.95;;;16.73;;
20697;SDS011;10508;50.956;4.640;2023-11-21T09:23:26;54.03;;;18.52;;
20697;SDS011;10508;50.956;4.640;2023-11-21T09:25:52;48.90;;;17.10;;
20697;SDS011;10508;50.956;4.640;2023-11-21T09:28:21;40.47;;;16.40;;
20697;SDS011;10508;50.956;4.640;2023-11-21T09:30:47;42.85;;;16.73;;
20697;SDS011;10508;50.956;4.640;2023-11-21T09:33:24;48.35;;;17.67;;
20697;SDS011;10508;50.956;4.640;2023-11-21T09:35:50;42.97;;;16.40;;
20697;SDS011;10508;50.956;4.640;2023-11-21T09:38:17;38.85;;;16.50;;
20697;SDS011;10508;50.956;4.640;2023-11-21T09:40:44;51.58;;;17.20;;
20697;SDS011;10508;50.956;4.640;2023-11-21T09:43:16;50.72;;;17.88;;
20697;SDS011;10508;50.956;4.640;2023-11-21T09:45:54;47.75;;;15.90;;
20697;SDS011;10508;50.956;4.640;2023-11-21T09:48:22;44.33;;;15.98;;
20697;SDS011;10508;50.956;4.640;2023-11-21T09:50:50;51.45;;;16.17;;
20697;SDS011;10508;50.956;4.640;2023-11-21T09:55:44;51.90;;;16.55;;
20697;SDS011;10508;50.956;4.640;2023-11-21T09:58:11;50.80;;;17.70;;
20697;SDS011;10508;50.956;4.640;2023-11-21T10:00:55;60.08;;;18.48;;
20697;SDS011;10508;50.956;4.640;2023-11-21T10:03:23;50.95;;;16.73;;
20697;SDS011;10508;50.956;4.640;2023-11-21T10:05:50;48.00;;;17.10;;
20697;SDS011;10508;50.956;4.640;2023-11-21T10:08:17;65.50;;;18.83;;
20697;SDS011;10508;50.956;4.640;2023-11-21T10:10:46;50.45;;;18.17;;
20697;SDS011;10508;50.956;4.640;2023-11-21T10:13:15;48.10;;;19.23;;
20697;SDS011;10508;50.956;4.640;2023-11-21T10:15:42;52.50;;;19.17;;
20697;SDS011;10508;50.956;4.640;2023-11-21T10:18:13;49.33;;;18.45;;
20697;SDS011;10508;50.956;4.640;2023-11-21T10:20:44;56.35;;;19.40;;
20697;SDS011;10508;50.956;4.640;2023-11-21T10:23:18;52.28;;;19.00;;
20697;SDS011;10508;50.956;4.640;2023-11-21T10:25:46;58.97;;;19.38;;
20697;SDS011;10508;50.956;4.640;2023-11-21T10:28:12;54.08;;;19.75;;
20697;SDS011;10508;50.956;4.640;2023-11-21T10:30:38;48.30;;;16.83;;
20697;SDS011;10508;50.956;4.640;2023-11-21T10:33:05;50.38;;;17.55;;
20697;SDS011;10508;50.956;4.640;2023-11-21T10:35:47;44.30;;;17.40;;
20697;SDS011;10508;50.956;4.640;2023-11-21T10:38:19;50.45;;;18.20;;
20697;SDS011;10508;50.956;4.640;2023-11-21T10:40:50;48.22;;;16.92;;
20697;SDS011;10508;50.956;4.640;2023-11-21T10:43:16;47.70;;;17.52;;
20697;SDS011;10508;50.956;4.640;2023-11-21T10:45:43;54.28;;;17.50;;
20697;SDS011;10508;50.956;4.640;2023-11-21T10:48:09;49.05;;;18.92;;
20697;SDS011;10508;50.956;4.640;2023-11-21T10:50:36;50.42;;;17.52;;
20697;SDS011;10508;50.956;4.640;2023-11-21T10:53:03;42.00;;;16.42;;
20697;SDS011;10508;50.956;4.640;2023-11-21T10:55:29;41.60;;;16.92;;
20697;SDS011;10508;50.956;4.640;2023-11-21T10:57:58;41.22;;;15.90;;
20697;SDS011;10508;50.956;4.640;2023-11-21T11:00:24;53.88;;;16.38;;
20697;SDS011;10508;50.956;4.640;2023-11-21T11:02:52;46.28;;;15.80;;
20697;SDS011;10508;50.956;4.640;2023-11-21T11:05:25;40.95;;;15.52;;
20697;SDS011;10508;50.956;4.640;2023-11-21T11:08:00;40.35;;;16.23;;
20697;SDS011;10508;50.956;4.640;2023-11-21T11:10:28;40.50;;;16.52;;
20697;SDS011;10508;50.956;4.640;2023-11-21T11:12:55;43.35;;;16.52;;
20697;SDS011;10508;50.956;4.640;2023-11-21T11:15:23;38.58;;;15.68;;
20697;SDS011;10508;50.956;4.640;2023-11-21T11:17:49;39.47;;;15.80;;
20697;SDS011;10508;50.956;4.640;2023-11-21T11:20:15;35.63;;;14.68;;
20697;SDS011;10508;50.956;4.640;2023-11-21T11:37:58;42.08;;;14.07;;
20697;SDS011;10508;50.956;4.640;2023-11-21T11:40:25;33.97;;;14.07;;
20697;SDS011;10508;50.956;4.640;2023-11-21T11:43:05;41.08;;;14.25;;
20697;SDS011;10508;50.956;4.640;2023-11-21T11:45:32;33.67;;;13.23;;
20697;SDS011;10508;50.956;4.640;2023-11-21T11:48:00;28.33;;;11.20;;
20697;SDS011;10508;50.956;4.640;2023-11-21T11:50:27;26.52;;;10.95;;
20697;SDS011;10508;50.956;4.640;2023-11-21T11:52:53;22.45;;;10.00;;
20697;SDS011;10508;50.956;4.640;2023-11-21T11:55:23;19.35;;;8.85;;
20697;SDS011;10508;50.956;4.640;2023-11-21T11:57:52;17.77;;;8.43;;
20697;SDS011;10508;50.956;4.640;2023-11-21T12:02:58;22.48;;;9.48;;
20697;SDS011;10508;50.956;4.640;2023-11-21T12:05:27;18.30;;;8.68;;
20697;SDS011;10508;50.956;4.640;2023-11-21T12:07:53;17.48;;;8.32;;
20697;SDS011;10508;50.956;4.640;2023-11-21T12:10:20;21.33;;;8.45;;
20697;SDS011;10508;50.956;4.640;2023-11-21T12:12:50;18.40;;;8.85;;
20697;SDS011;10508;50.956;4.640;2023-11-21T12:15:17;17.77;;;9.57;;
20697;SDS011;10508;50.956;4.640;2023-11-21T12:17:44;16.42;;;7.72;;
20697;SDS011;10508;50.956;4.640;2023-11-21T12:20:11;17.52;;;8.18;;
20697;SDS011;10508;50.956;4.640;2023-11-21T12:22:44;22.58;;;8.75;;
20697;SDS011;10508;50.956;4.640;2023-11-21T12:25:12;18.25;;;7.38;;
20697;SDS011;10508;50.956;4.640;2023-11-21T12:27:41;14.07;;;7.45;;
20697;SDS011;10508;50.956;4.640;2023-11-21T12:30:07;13.02;;;6.82;;
20697;SDS011;10508;50.956;4.640;2023-11-21T12:32:38;13.60;;;7.03;;
20697;SDS011;10508;50.956;4.640;2023-11-21T12:35:05;14.73;;;6.00;;
20697;SDS011;10508;50.956;4.640;2023-11-21T12:37:31;10.63;;;5.50;;
20697;SDS011;10508;50.956;4.640;2023-11-21T12:39:57;10.15;;;5.28;;
20697;SDS011;10508;50.956;4.640;2023-11-21T12:42:24;11.77;;;5.20;;
20697;SDS011;10508;50.956;4.640;2023-11-21T12:45:18;8.25;;;4.07;;
20697;SDS011;10508;50.956;4.640;2023-11-21T12:47:40;14.90;;;4.93;;
20697;SDS011;10508;50.956;4.640;2023-11-21T12:50:06;14.38;;;5.20;;
20697;SDS011;10508;50.956;4.640;2023-11-21T12:52:39;6.72;;;4.22;;
20697;SDS011;10508;50.956;4.640;2023-11-21T12:55:05;10.65;;;4.53;;
20697;SDS011;10508;50.956;4.640;2023-11-21T12:57:33;7.82;;;4.57;;
20697;SDS011;10508;50.956;4.640;2023-11-21T12:59:59;9.35;;;4.13;;
20697;SDS011;10508;50.956;4.640;2023-11-21T13:02:36;7.93;;;4.30;;
20697;SDS011;10508;50.956;4.640;2023-11-21T13:05:03;11.98;;;4.97;;
20697;SDS011;10508;50.956;4.640;2023-11-21T13:07:41;8.02;;;4.10;;
20697;SDS011;10508;50.956;4.640;2023-11-21T13:10:12;7.22;;;4.13;;
20697;SDS011;10508;50.956;4.640;2023-11-21T13:12:42;8.15;;;4.07;;
20697;SDS011;10508;50.956;4.640;2023-11-21T13:15:09;8.70;;;5.65;;
20697;SDS011;10508;50.956;4.640;2023-11-21T13:17:35;6.55;;;4.07;;
20697;SDS011;10508;50.956;4.640;2023-11-21T13:20:01;6.38;;;3.30;;
20697;SDS011;10508;50.956;4.640;2023-11-21T13:22:33;7.35;;;3.25;;
20697;SDS011;10508;50.956;4.640;2023-11-21T13:25:00;7.90;;;3.10;;
20697;SDS011;10508;50.956;4.640;2023-11-21T13:27:32;6.00;;;3.05;;
20697;SDS011;10508;50.956;4.640;2023-11-21T13:29:59;4.57;;;2.40;;
20697;SDS011;10508;50.956;4.640;2023-11-21T13:32:25;3.50;;;2.20;;
20697;SDS011;10508;50.956;4.640;2023-11-21T13:34:51;2.80;;;2.13;;
20697;SDS011;10508;50.956;4.640;2023-11-21T13:37:19;4.18;;;2.50;;
20697;SDS011;10508;50.956;4.640;2023-11-21T13:39:45;6.95;;;2.33;;
20697;SDS011;10508;50.956;4.640;2023-11-21T13:42:15;5.65;;;2.60;;
20697;SDS011;10508;50.956;4.640;2023-11-21T13:44:41;4.03;;;2.10;;
20697;SDS011;10508;50.956;4.640;2023-11-21T13:47:11;4.32;;;2.25;;
20697;SDS011;10508;50.956;4.640;2023-11-21T13:49:37;3.08;;;1.95;;
20697;SDS011;10508;50.956;4.640;2023-11-21T13:52:06;4.38;;;2.55;;
20697;SDS011;10508;50.956;4.640;2023-11-21T13:54:32;3.25;;;2.20;;
20697;SDS011;10508;50.956;4.640;2023-11-21T13:56:58;5.47;;;2.95;;
20697;SDS011;10508;50.956;4.640;2023-11-21T13:59:25;3.53;;;2.22;;
20697;SDS011;10508;50.956;4.640;2023-11-21T14:01:53;8.52;;;2.83;;
20697;SDS011;10508;50.956;4.640;2023-11-21T14:04:20;5.15;;;2.90;;
20697;SDS011;10508;50.956;4.640;2023-11-21T14:07:00;4.47;;;2.60;;
20697;SDS011;10508;50.956;4.640;2023-11-21T14:09:42;8.90;;;3.42;;
20697;SDS011;10508;50.956;4.640;2023-11-21T14:12:11;7.35;;;3.13;;
20697;SDS011;10508;50.956;4.640;2023-11-21T14:14:38;4.53;;;2.67;;
20697;SDS011;10508;50.956;4.640;2023-11-21T14:17:07;8.50;;;2.65;;
20697;SDS011;10508;50.956;4.640;2023-11-21T14:19:35;5.00;;;3.17;;
20697;SDS011;10508;50.956;4.640;2023-11-21T14:22:05;7.53;;;3.35;;
20697;SDS011;10508;50.956;4.640;2023-11-21T14:24:34;4.75;;;2.47;;
20697;SDS011;10508;50.956;4.640;2023-11-21T14:27:00;7.18;;;2.92;;
20697;SDS011;10508;50.956;4.640;2023-11-21T14:29:26;5.18;;;2.95;;
20697;SDS011;10508;50.956;4.640;2023-11-21T14:31:54;5.82;;;3.05;;
20697;SDS011;10508;50.956;4.640;2023-11-21T14:34:22;7.00;;;3.08;;
20697;SDS011;10508;50.956;4.640;2023-11-21T14:36:49;8.00;;;3.53;;
20697;SDS011;10508;50.956;4.640;2023-11-21T14:39:15;5.28;;;3.50;;
20697;SDS011;10508;50.956;4.640;2023-11-21T14:41:51;5.22;;;3.08;;
20697;SDS011;10508;50.956;4.640;2023-11-21T14:44:18;5.78;;;3.47;;
20697;SDS011;10508;50.956;4.640;2023-11-21T14:46:44;7.82;;;3.55;;
20697;SDS011;10508;50.956;4.640;2023-11-21T14:49:12;6.25;;;3.80;;